createdAt,value
2022-08-22T00:00:13.891Z,97964.56
2022-08-22T00:02:21.459Z,97964.19
2022-08-22T00:02:49.863Z,97959.88
2022-08-22T00:02:49.989Z,97959.97
2022-08-22T00:02:56.358Z,97943.22
2022-08-22T00:02:59.341Z,97972.00
2022-08-22T00:03:16.022Z,97968.38
2022-08-22T00:04:29.845Z,97963.34
2022-08-22T00:06:44.638Z,97956.72
2022-08-22T00:08:55.558Z,97954.25
2022-08-22T00:11:02.637Z,97959.81
2022-08-22T00:13:09.916Z,97963.72
2022-08-22T00:15:43.653Z,97961.91
2022-08-22T00:17:49.055Z,97957.78
2022-08-22T00:19:57.103Z,97964.00
2022-08-22T00:22:03.619Z,97961.53
2022-08-22T00:24:11.878Z,97968.47
2022-08-22T00:26:24.689Z,97965.13
2022-08-22T00:28:31.383Z,97968.75
2022-08-22T00:30:45.812Z,97964.31
2022-08-22T00:32:51.864Z,97964.31
2022-08-22T00:34:58.947Z,97966.28
2022-08-22T00:37:04.999Z,97955.03
2022-08-22T00:39:13.099Z,97965.19
2022-08-22T00:41:32.115Z,97968.09
2022-08-22T00:43:58.579Z,97962.31
2022-08-22T00:46:19.635Z,97968.69
2022-08-22T00:48:49.470Z,97964.56
2022-08-22T00:51:05.474Z,97965.00
2022-08-22T00:53:27.438Z,97964.28
2022-08-22T00:55:45.299Z,97962.81
2022-08-22T00:58:03.502Z,97962.25
2022-08-22T01:00:13.115Z,97972.56
2022-08-22T01:02:31.766Z,97965.09
2022-08-22T01:05:08.353Z,97956.81
2022-08-22T01:07:38.158Z,97961.38
2022-08-22T01:09:50.866Z,97956.25
2022-08-22T01:12:11.789Z,97958.22
2022-08-22T01:14:34.251Z,97953.22
2022-08-22T01:16:52.072Z,97960.47
2022-08-22T01:19:08.478Z,97951.88
2022-08-22T01:21:49.847Z,97960.88
2022-08-22T01:24:32.859Z,97950.13
2022-08-22T01:27:13.766Z,97953.03
2022-08-22T01:29:49.516Z,97950.00
2022-08-22T01:32:28.165Z,97955.41
2022-08-22T01:34:41.659Z,97961.09
2022-08-22T01:37:01.629Z,97958.75
2022-08-22T01:39:25.712Z,97958.75
2022-08-22T01:41:46.793Z,97952.81
2022-08-22T01:44:10.021Z,97958.88
2022-08-22T01:46:27.050Z,97960.03
2022-08-22T01:48:36.003Z,97953.91
2022-08-22T01:50:43.499Z,97963.63
2022-08-22T01:52:50.707Z,97956.69
2022-08-22T01:54:56.169Z,97957.81
2022-08-22T01:57:04.467Z,97965.72
2022-08-22T01:59:11.214Z,97965.19
2022-08-22T02:01:21.453Z,97963.53
2022-08-22T02:03:27.191Z,97952.47
2022-08-22T02:05:33.575Z,97960.34
2022-08-22T02:07:46.155Z,97964.91
2022-08-22T02:09:54.117Z,97958.16
2022-08-22T02:11:59.754Z,97959.50
2022-08-22T02:14:14.067Z,97960.88
2022-08-22T02:16:21.561Z,97963.25
2022-08-22T02:18:29.168Z,97962.72
2022-08-22T02:20:35.408Z,97960.38
2022-08-22T02:22:44.921Z,97958.72
2022-08-22T02:24:52.377Z,97954.25
2022-08-22T02:27:06.241Z,97969.91
2022-08-22T02:29:13.407Z,97955.94
2022-08-22T02:31:21.521Z,97952.47
2022-08-22T02:33:30.147Z,97951.94
2022-08-22T02:35:38.867Z,97955.97
2022-08-22T02:37:50.594Z,97950.56
2022-08-22T02:40:03.190Z,97948.22
2022-08-22T02:42:16.329Z,97942.25
2022-08-22T02:44:22.617Z,97945.75
2022-08-22T02:46:31.542Z,97949.88
2022-08-22T02:48:38.380Z,97948.63
2022-08-22T02:50:45.531Z,97952.94
2022-08-22T02:53:02.367Z,97950.56
2022-08-22T02:55:09.172Z,97944.59
2022-08-22T02:57:14.142Z,97952.78
2022-08-22T02:59:26.081Z,97948.78
2022-08-22T03:01:40.784Z,97947.25
2022-08-22T03:03:47.712Z,97952.94
2022-08-22T03:06:01.018Z,97941.00
2022-08-22T03:08:13.129Z,97949.91
2022-08-22T03:10:22.926Z,97948.38
2022-08-22T03:12:32.124Z,97950.16
2022-08-22T03:14:43.085Z,97944.06
2022-08-22T03:16:50.720Z,97955.56
2022-08-22T03:18:57.295Z,97949.78
2022-08-22T03:21:14.930Z,97956.13
2022-08-22T03:23:32.670Z,97951.00
2022-08-22T03:25:39.265Z,97956.13
2022-08-22T03:27:49.471Z,97954.44
2022-08-22T03:29:55.855Z,97950.19
2022-08-22T03:32:12.255Z,97944.34
2022-08-22T03:34:22.172Z,97951.56
2022-08-22T03:36:28.259Z,97949.06
2022-08-22T03:38:49.177Z,97949.88
2022-08-22T03:41:16.407Z,97941.44
2022-08-22T03:43:32.252Z,97950.03
2022-08-22T03:46:04.419Z,97942.97
2022-08-22T03:48:36.573Z,97946.84
2022-08-22T03:51:00.020Z,97943.50
2022-08-22T03:53:41.068Z,97950.66
2022-08-22T03:56:46.420Z,97953.28
2022-08-22T03:59:12.273Z,97954.25
2022-08-22T04:01:41.360Z,97958.53
2022-08-22T04:04:24.042Z,97960.34
2022-08-22T04:06:56.403Z,97964.75
2022-08-22T04:09:27.603Z,97965.03
2022-08-22T04:11:46.880Z,97968.78
2022-08-22T04:13:58.698Z,97966.28
2022-08-22T04:16:15.974Z,97976.94
2022-08-22T04:18:37.871Z,97978.84
2022-08-22T04:21:28.837Z,97983.28
2022-08-22T04:23:57.931Z,97980.50
2022-08-22T04:26:11.958Z,97983.28
2022-08-22T04:28:20.818Z,97983.28
2022-08-22T04:30:28.659Z,97979.09
2022-08-22T04:32:36.451Z,97983.53
2022-08-22T04:34:42.629Z,97985.47
2022-08-22T04:36:48.704Z,97982.72
2022-08-22T04:38:55.807Z,97987.13
2022-08-22T04:41:04.943Z,97987.13
2022-08-22T04:43:11.090Z,97985.47
2022-08-22T04:45:18.173Z,97982.28
2022-08-22T04:47:29.940Z,97993.03
2022-08-22T04:49:36.995Z,97989.72
2022-08-22T04:51:42.281Z,97990.53
2022-08-22T04:53:57.505Z,97989.31
2022-08-22T04:56:08.247Z,97996.53
2022-08-22T04:58:23.146Z,98000.44
2022-08-22T05:00:26.234Z,97998.22
2022-08-22T05:02:31.174Z,98002.28
2022-08-22T05:04:36.938Z,98003.78
2022-08-22T05:06:41.494Z,98006.97
2022-08-22T05:08:46.446Z,98012.69
2022-08-22T05:10:57.312Z,98010.47
2022-08-22T05:13:04.412Z,98011.88
2022-08-22T05:15:12.038Z,98016.59
2022-08-22T05:17:19.322Z,98019.50
2022-08-22T05:19:33.196Z,98015.06
2022-08-22T05:21:39.598Z,98027.69
2022-08-22T05:23:44.229Z,98022.97
2022-08-22T05:25:51.201Z,98027.50
2022-08-22T05:27:56.854Z,98026.41
2022-08-22T05:30:06.104Z,98025.31
2022-08-22T05:32:15.533Z,98023.63
2022-08-22T05:34:23.164Z,98022.56
2022-08-22T05:36:28.302Z,98031.25
2022-08-22T05:38:33.599Z,98029.66
2022-08-22T05:40:37.705Z,98028.88
2022-08-22T05:42:41.221Z,98041.28
2022-08-22T05:44:44.448Z,98034.25
2022-08-22T05:46:52.807Z,98036.06
2022-08-22T05:48:58.552Z,98034.44
2022-08-22T05:51:09.422Z,98042.34
2022-08-22T05:53:15.467Z,98039.72
2022-08-22T05:55:26.302Z,98046.28
2022-08-22T05:57:32.407Z,98034.16
2022-08-22T05:59:37.044Z,98035.41
2022-08-22T06:01:47.862Z,98033.88
2022-08-22T06:04:02.472Z,98041.88
2022-08-22T06:06:12.616Z,98036.22
2022-08-22T06:08:19.681Z,98039.38
2022-08-22T06:10:27.301Z,98042.44
2022-08-22T06:12:34.260Z,98043.00
2022-08-22T06:14:42.463Z,98033.94
2022-08-22T06:16:48.905Z,98038.31
2022-08-22T06:18:52.864Z,98036.50
2022-08-22T06:20:59.628Z,98045.13
2022-08-22T06:23:04.020Z,98041.81
2022-08-22T06:25:09.327Z,98039.81
2022-08-22T06:27:14.370Z,98036.50
2022-08-22T06:29:27.177Z,98038.28
2022-08-22T06:31:32.465Z,98048.72
2022-08-22T06:33:38.438Z,98043.84
2022-08-22T06:36:00.944Z,98053.09
2022-08-22T06:38:05.330Z,98049.84
2022-08-22T06:40:10.207Z,98049.97
2022-08-22T06:42:16.848Z,98047.19
2022-08-22T06:44:23.318Z,98048.56
2022-08-22T06:46:28.455Z,98044.13
2022-08-22T06:48:31.747Z,98046.72
2022-08-22T06:50:36.853Z,98045.13
2022-08-22T06:52:50.813Z,98039.91
2022-08-22T06:55:00.274Z,98046.53
2022-08-22T06:57:05.143Z,98042.38
2022-08-22T06:59:11.309Z,98043.38
2022-08-22T07:01:17.748Z,98048.44
2022-08-22T07:03:26.055Z,98034.31
2022-08-22T07:05:30.982Z,98044.03
2022-08-22T07:07:34.059Z,98053.47
2022-08-22T07:09:38.951Z,98058.31
2022-08-22T07:11:43.648Z,98050.53
2022-08-22T07:13:50.680Z,98060.84
2022-08-22T07:15:56.257Z,98059.44
2022-08-22T07:18:01.944Z,98062.03
2022-08-22T07:20:11.465Z,98065.25
2022-08-22T07:22:17.198Z,98058.75
2022-08-22T07:24:24.528Z,98058.25
2022-08-22T07:26:32.702Z,98056.16
2022-08-22T07:28:51.155Z,98051.34
2022-08-22T07:31:05.377Z,98051.44
2022-08-22T07:33:26.726Z,98047.78
2022-08-22T07:35:32.012Z,98054.03
2022-08-22T07:37:55.830Z,98057.41
2022-08-22T07:40:05.123Z,98060.16
2022-08-22T07:42:12.982Z,98067.41
2022-08-22T07:44:18.930Z,98065.19
2022-08-22T07:46:28.532Z,98065.81
2022-08-22T07:48:40.867Z,98064.19
2022-08-22T07:51:00.442Z,98059.22
2022-08-22T07:53:08.696Z,98057.81
2022-08-22T07:55:17.664Z,98061.50
2022-08-22T07:57:24.199Z,98062.72
2022-08-22T07:59:29.956Z,98065.81
2022-08-22T08:01:33.252Z,98064.16
2022-08-22T08:03:36.656Z,98053.59
2022-08-22T08:05:42.757Z,98056.91
2022-08-22T08:07:47.825Z,98059.78
2022-08-22T08:09:56.400Z,98059.56
2022-08-22T08:12:00.848Z,98057.88
2022-08-22T08:14:05.316Z,98058.69
2022-08-22T08:16:13.536Z,98054.53
2022-08-22T08:18:21.967Z,98057.56
2022-08-22T08:20:27.238Z,98063.69
2022-08-22T08:22:30.630Z,98067.53
2022-08-22T08:24:40.191Z,98070.34
2022-08-22T08:27:05.943Z,98060.41
2022-08-22T08:29:09.210Z,98060.47
2022-08-22T08:31:21.573Z,98066.59
2022-08-22T08:33:28.108Z,98073.50
2022-08-22T08:36:01.963Z,98075.53
2022-08-22T08:38:03.434Z,98069.94
2022-08-22T08:40:20.267Z,98073.97
2022-08-22T08:43:02.825Z,98071.97
2022-08-22T08:45:20.408Z,98069.91
2022-08-22T08:47:32.687Z,98066.19
2022-08-22T08:50:08.216Z,98070.16
2022-08-22T08:52:24.441Z,98063.19
2022-08-22T08:54:43.348Z,98062.09
2022-08-22T08:56:54.410Z,98058.69
2022-08-22T08:59:10.265Z,98051.28
2022-08-22T09:01:29.802Z,98054.72
2022-08-22T09:03:54.453Z,98050.78
2022-08-22T09:06:07.197Z,98048.22
2022-08-22T09:08:47.520Z,98048.34
2022-08-22T09:11:19.244Z,98046.94
2022-08-22T09:13:48.450Z,98049.72
2022-08-22T09:16:04.780Z,98052.25
2022-08-22T09:19:03.654Z,98053.47
2022-08-22T09:21:30.800Z,98058.72
2022-08-22T09:24:18.638Z,98053.78
2022-08-22T09:26:28.211Z,98051.09
2022-08-22T09:28:37.250Z,98054.53
2022-08-22T09:31:16.981Z,98048.56
2022-08-22T09:33:35.085Z,98049.00
2022-08-22T09:35:47.903Z,98054.28
2022-08-22T09:38:16.539Z,98052.56
2022-08-22T09:40:29.050Z,98051.66
2022-08-22T09:42:44.934Z,98045.03
2022-08-22T09:44:59.786Z,98058.03
2022-08-22T09:47:08.546Z,98053.25
2022-08-22T09:49:14.724Z,98053.25
2022-08-22T09:51:34.441Z,98057.72
2022-08-22T09:53:53.069Z,98056.56
2022-08-22T09:56:15.010Z,98049.56
2022-08-22T09:58:23.621Z,98042.13
2022-08-22T10:00:33.568Z,98040.34
2022-08-22T10:02:43.539Z,98039.94
2022-08-22T10:04:47.938Z,98039.91
2022-08-22T10:06:59.519Z,98040.91
2022-08-22T10:09:08.972Z,98044.97
2022-08-22T10:11:20.798Z,98034.66
2022-08-22T10:13:34.372Z,98028.94
2022-08-22T10:15:42.634Z,98034.91
2022-08-22T10:17:53.268Z,98036.38
2022-08-22T10:20:05.872Z,98044.97
2022-08-22T10:22:36.998Z,98037.22
2022-08-22T10:24:48.496Z,98033.47
2022-08-22T10:26:54.484Z,98028.28
2022-08-22T10:29:01.656Z,98025.91
2022-08-22T10:31:22.507Z,98028.69
2022-08-22T10:33:29.403Z,98022.84
2022-08-22T10:35:35.734Z,98023.66
2022-08-22T10:37:46.069Z,98014.47
2022-08-22T10:39:56.269Z,98013.66
2022-08-22T10:42:19.369Z,98003.09
2022-08-22T10:44:32.061Z,97998.31
2022-08-22T10:46:38.945Z,98003.59
2022-08-22T10:48:50.325Z,98003.44
2022-08-22T10:50:58.521Z,97998.13
2022-08-22T10:53:24.696Z,97997.56
2022-08-22T10:55:33.513Z,97992.28
2022-08-22T10:57:56.722Z,97993.91
2022-08-22T11:00:07.107Z,97992.13
2022-08-22T11:02:26.177Z,97992.84
2022-08-22T11:04:39.178Z,97983.50
2022-08-22T11:06:46.499Z,97991.84
2022-08-22T11:09:10.904Z,97983.16
2022-08-22T11:11:21.270Z,97986.88
2022-08-22T11:13:28.423Z,97985.78
2022-08-22T11:15:53.025Z,97982.97
2022-08-22T11:18:14.798Z,97990.59
2022-08-22T11:20:22.218Z,97985.41
2022-08-22T11:22:31.460Z,97982.13
2022-08-22T11:25:06.705Z,97983.56
2022-08-22T11:27:20.868Z,97985.56
2022-08-22T11:29:39.674Z,97979.94
2022-08-22T11:31:52.215Z,97977.72
2022-08-22T11:34:01.048Z,97970.91
2022-08-22T11:36:12.805Z,97972.56
2022-08-22T11:38:31.213Z,97973.59
2022-08-22T11:40:43.709Z,97977.06
2022-08-22T11:42:50.121Z,97960.66
2022-08-22T11:44:55.933Z,97957.81
2022-08-22T11:47:01.320Z,97954.22
2022-08-22T11:49:27.244Z,97957.50
2022-08-22T11:51:47.147Z,97958.81
2022-08-22T11:53:56.394Z,97945.00
2022-08-22T11:56:12.222Z,97956.97
2022-08-22T11:58:29.281Z,97951.09
2022-08-22T12:00:37.183Z,97958.56
2022-08-22T12:02:54.899Z,97949.56
2022-08-22T12:05:03.911Z,97947.09
2022-08-22T12:07:14.388Z,97942.06
2022-08-22T12:09:40.134Z,97945.47
2022-08-22T12:11:54.451Z,97948.63
2022-08-22T12:14:06.546Z,97950.31
2022-08-22T12:16:15.709Z,97942.84
2022-08-22T12:18:31.072Z,97946.75
2022-08-22T12:20:49.931Z,97940.78
2022-08-22T12:23:12.134Z,97934.66
2022-08-22T12:25:24.046Z,97937.25
2022-08-22T12:27:49.723Z,97935.25
2022-08-22T12:30:05.547Z,97933.25
2022-08-22T12:32:43.726Z,97931.03
2022-08-22T12:34:55.495Z,97942.63
2022-08-22T12:37:04.796Z,97934.16
2022-08-22T12:39:27.299Z,97936.00
2022-08-22T12:41:56.894Z,97934.81
2022-08-22T12:44:07.811Z,97932.94
2022-08-22T12:46:28.231Z,97925.66
2022-08-22T12:48:44.073Z,97927.44
2022-08-22T12:50:51.731Z,97921.91
2022-08-22T12:53:07.875Z,97928.91
2022-08-22T12:55:25.492Z,97917.34
2022-08-22T12:57:38.860Z,97915.34
2022-08-22T12:59:45.393Z,97915.97
2022-08-22T13:01:50.511Z,97909.03
2022-08-22T13:03:57.350Z,97909.97
2022-08-22T13:06:04.496Z,97907.66
2022-08-22T13:08:17.592Z,97902.75
2022-08-22T13:10:34.816Z,97903.66
2022-08-22T13:12:44.455Z,97899.78
2022-08-22T13:14:53.512Z,97904.25
2022-08-22T13:16:58.696Z,97898.50
2022-08-22T13:19:07.638Z,97899.66
2022-08-22T13:21:15.161Z,97909.00
2022-08-22T13:23:24.077Z,97900.00
2022-08-22T13:25:29.247Z,97897.72
2022-08-22T13:27:34.982Z,97888.34
2022-08-22T13:29:43.018Z,97896.31
2022-08-22T13:31:52.606Z,97898.56
2022-08-22T13:34:00.711Z,97899.16
2022-08-22T13:36:06.686Z,97899.16
2022-08-22T13:38:13.631Z,97898.47
2022-08-22T13:40:24.723Z,97901.88
2022-08-22T13:42:31.376Z,97897.09
2022-08-22T13:44:39.218Z,97904.22
2022-08-22T13:46:58.185Z,97903.09
2022-08-22T13:49:09.454Z,97898.47
2022-08-22T13:51:16.235Z,97887.50
2022-08-22T13:53:27.693Z,97893.75
2022-08-22T13:55:37.554Z,97897.19
2022-08-22T13:57:51.705Z,97887.25
2022-08-22T14:00:05.836Z,97889.69
2022-08-22T14:02:17.801Z,97888.09
2022-08-22T14:04:28.835Z,97881.84
2022-08-22T14:06:43.917Z,97888.47
2022-08-22T14:08:48.222Z,97886.97
2022-08-22T14:10:55.616Z,97888.63
2022-08-22T14:13:32.614Z,97889.38
2022-08-22T14:15:45.727Z,97880.59
2022-08-22T14:17:49.838Z,97886.28
2022-08-22T14:20:01.546Z,97873.91
2022-08-22T14:22:08.423Z,97880.91
2022-08-22T14:24:20.426Z,97883.56
2022-08-22T14:26:33.087Z,97874.84
2022-08-22T14:28:40.678Z,97875.88
2022-08-22T14:30:59.464Z,97871.06
2022-08-22T14:33:12.439Z,97881.47
2022-08-22T14:35:34.858Z,97871.81
2022-08-22T14:37:43.074Z,97872.88
2022-08-22T14:39:48.249Z,97867.50
2022-08-22T14:41:58.653Z,97872.88
2022-08-22T14:44:07.055Z,97869.34
2022-08-22T14:46:14.243Z,97866.31
2022-08-22T14:48:30.965Z,97861.38
2022-08-22T14:50:46.120Z,97859.72
2022-08-22T14:53:05.615Z,97863.84
2022-08-22T14:55:22.095Z,97860.38
2022-08-22T14:57:25.421Z,97852.97
2022-08-22T14:59:36.564Z,97861.25
2022-08-22T15:01:54.922Z,97856.91
2022-08-22T15:04:02.861Z,97854.59
2022-08-22T15:06:12.482Z,97854.16
2022-08-22T15:08:28.140Z,97857.06
2022-08-22T15:10:33.113Z,97845.06
2022-08-22T15:12:40.373Z,97841.81
2022-08-22T15:14:51.941Z,97849.59
2022-08-22T15:16:57.476Z,97849.28
2022-08-22T15:19:02.106Z,97843.63
2022-08-22T15:21:10.071Z,97847.50
2022-08-22T15:23:23.427Z,97835.38
2022-08-22T15:25:29.831Z,97842.31
2022-08-22T15:27:36.668Z,97841.38
2022-08-22T15:29:51.381Z,97839.41
2022-08-22T15:31:57.672Z,97838.13
2022-08-22T15:34:11.201Z,97838.94
2022-08-22T15:36:24.121Z,97842.69
2022-08-22T15:38:30.805Z,97839.06
2022-08-22T15:40:40.484Z,97835.16
2022-08-22T15:42:45.824Z,97834.91
2022-08-22T15:44:55.220Z,97841.28
2022-08-22T15:47:01.459Z,97838.47
2022-08-22T15:49:07.741Z,97823.59
2022-08-22T15:51:33.802Z,97837.50
2022-08-22T15:54:00.971Z,97827.66
2022-08-22T15:56:29.661Z,97833.84
2022-08-22T15:58:33.148Z,97827.75
2022-08-22T16:00:43.848Z,97834.97
2022-08-22T16:02:57.481Z,97829.88
2022-08-22T16:05:19.058Z,97827.94
2022-08-22T16:07:28.877Z,97821.38
2022-08-22T16:09:36.394Z,97830.22
2022-08-22T16:11:40.591Z,97824.06
2022-08-22T16:13:45.763Z,97824.84
2022-08-22T16:16:01.431Z,97822.84
2022-08-22T16:18:04.652Z,97823.09
2022-08-22T16:20:43.310Z,97826.59
2022-08-22T16:23:09.547Z,97819.19
2022-08-22T16:25:14.228Z,97828.50
2022-08-22T16:27:20.751Z,97827.94
2022-08-22T16:29:32.061Z,97826.72
2022-08-22T16:31:58.267Z,97818.28
2022-08-22T16:34:24.099Z,97819.53
2022-08-22T16:36:41.963Z,97826.78
2022-08-22T16:38:49.407Z,97823.06
2022-08-22T16:40:52.453Z,97822.84
2022-08-22T16:43:14.131Z,97825.69
2022-08-22T16:45:20.521Z,97826.50
2022-08-22T16:47:25.885Z,97819.50
2022-08-22T16:49:30.862Z,97821.13
2022-08-22T16:51:33.836Z,97826.28
2022-08-22T16:54:18.204Z,97825.09
2022-08-22T16:56:28.008Z,97816.88
2022-08-22T16:59:14.089Z,97817.75
2022-08-22T17:01:34.968Z,97819.69
2022-08-22T17:03:43.676Z,97814.56
2022-08-22T17:05:54.831Z,97812.78
2022-08-22T17:08:08.003Z,97824.38
2022-08-22T17:10:25.264Z,97818.25
2022-08-22T17:12:39.181Z,97813.75
2022-08-22T17:14:48.801Z,97816.06
2022-08-22T17:16:58.476Z,97824.75
2022-08-22T17:19:14.668Z,97824.56
2022-08-22T17:21:25.811Z,97820.69
2022-08-22T17:23:36.269Z,97820.31
2022-08-22T17:25:51.573Z,97830.41
2022-08-22T17:28:07.554Z,97825.28
2022-08-22T17:30:14.363Z,97833.75
2022-08-22T17:32:22.504Z,97828.00
2022-08-22T17:34:34.172Z,97845.72
2022-08-22T17:36:54.084Z,97840.19
2022-08-22T17:39:05.723Z,97838.97
2022-08-22T17:41:17.602Z,97840.25
2022-08-22T17:43:33.556Z,97840.88
2022-08-22T17:46:12.771Z,97840.72
2022-08-22T17:48:19.919Z,97847.53
2022-08-22T17:50:26.837Z,97847.97
2022-08-22T17:52:36.115Z,97848.59
2022-08-22T17:54:41.747Z,97849.03
2022-08-22T17:56:47.155Z,97849.06
2022-08-22T17:59:08.598Z,97851.53
2022-08-22T18:01:14.988Z,97850.53
2022-08-22T18:03:23.481Z,97847.44
2022-08-22T18:05:29.714Z,97849.91
2022-08-22T18:07:55.179Z,97857.16
2022-08-22T18:10:01.931Z,97852.88
2022-08-22T18:12:09.306Z,97861.94
2022-08-22T18:14:25.540Z,97854.75
2022-08-22T18:16:30.698Z,97860.34
2022-08-22T18:18:37.108Z,97854.97
2022-08-22T18:20:48.159Z,97856.88
2022-08-22T18:22:54.464Z,97865.94
2022-08-22T18:25:02.620Z,97859.50
2022-08-22T18:27:10.359Z,97859.94
2022-08-22T18:29:47.046Z,97861.78
2022-08-22T18:31:52.617Z,97862.59
2022-08-22T18:34:00.706Z,97867.16
2022-08-22T18:36:10.756Z,97871.66
2022-08-22T18:38:22.259Z,97872.47
2022-08-22T18:40:33.531Z,97871.44
2022-08-22T18:42:41.436Z,97878.44
2022-08-22T18:44:46.217Z,97883.75
2022-08-22T18:46:52.006Z,97882.69
2022-08-22T18:49:14.758Z,97882.28
2022-08-22T18:51:24.776Z,97883.31
2022-08-22T18:53:38.038Z,97887.78
2022-08-22T18:55:47.775Z,97892.06
2022-08-22T18:58:11.121Z,97886.13
2022-08-22T19:00:17.798Z,97888.97
2022-08-22T19:02:55.945Z,97894.03
2022-08-22T19:05:33.366Z,97897.72
2022-08-22T19:08:05.171Z,97894.56
2022-08-22T19:10:23.313Z,97899.03
2022-08-22T19:12:37.184Z,97896.16
2022-08-22T19:15:12.377Z,97902.66
2022-08-22T19:17:33.981Z,97905.28
2022-08-22T19:20:01.922Z,97902.97
2022-08-22T19:22:27.835Z,97910.13
2022-08-22T19:25:09.061Z,97913.56
2022-08-22T19:27:31.167Z,97912.69
2022-08-22T19:29:59.944Z,97915.91
2022-08-22T19:32:05.914Z,97924.88
2022-08-22T19:34:36.651Z,97927.28
2022-08-22T19:36:39.788Z,97921.53
2022-08-22T19:38:56.705Z,97922.72
2022-08-22T19:40:59.852Z,97921.66
2022-08-22T19:43:30.162Z,97922.88
2022-08-22T19:45:40.856Z,97926.94
2022-08-22T19:47:44.861Z,97922.59
2022-08-22T19:49:58.706Z,97922.97
2022-08-22T19:52:10.304Z,97923.16
2022-08-22T19:54:18.096Z,97924.22
2022-08-22T19:56:33.713Z,97929.25
2022-08-22T19:58:57.585Z,97929.66
2022-08-22T20:01:06.481Z,97930.03
2022-08-22T20:03:15.409Z,97931.06
2022-08-22T20:05:37.752Z,97935.97
2022-08-22T20:07:51.122Z,97932.63
2022-08-22T20:10:02.400Z,97942.66
2022-08-22T20:12:15.489Z,97942.03
2022-08-22T20:14:26.556Z,97941.56
2022-08-22T20:17:02.687Z,97935.44
2022-08-22T20:19:19.144Z,97931.75
2022-08-22T20:21:44.462Z,97936.91
2022-08-22T20:23:47.871Z,97933.41
2022-08-22T20:25:52.960Z,97933.41
2022-08-22T20:28:02.861Z,97938.72
2022-08-22T20:30:10.814Z,97938.28
2022-08-22T20:32:16.545Z,97941.66
2022-08-22T20:34:23.440Z,97936.91
2022-08-22T20:36:28.557Z,97937.28
2022-08-22T20:38:38.079Z,97941.78
2022-08-22T20:40:56.346Z,97942.81
2022-08-22T20:43:04.316Z,97947.31
2022-08-22T20:45:18.168Z,97945.03
2022-08-22T20:47:26.287Z,97949.88
2022-08-22T20:49:42.445Z,97950.06
2022-08-22T20:51:52.683Z,97938.78
2022-08-22T20:53:58.607Z,97946.06
2022-08-22T20:56:01.614Z,97939.41
2022-08-22T20:58:07.026Z,97943.72
2022-08-22T21:00:12.976Z,97942.19
2022-08-22T21:02:20.440Z,97940.69
2022-08-22T21:04:26.729Z,97942.97
2022-08-22T21:06:36.100Z,97939.13
2022-08-22T21:08:39.414Z,97947.81
2022-08-22T21:11:01.142Z,97952.59
2022-08-22T21:13:08.474Z,97955.84
2022-08-22T21:15:11.587Z,97949.16
2022-08-22T21:17:22.157Z,97949.19
2022-08-22T21:19:26.979Z,97951.91
2022-08-22T21:21:31.494Z,97954.66
2022-08-22T21:23:35.031Z,97959.00
2022-08-22T21:25:53.721Z,97954.56
2022-08-22T21:27:57.139Z,97961.78
2022-08-22T21:30:01.972Z,97960.66
2022-08-22T21:32:24.523Z,97960.56
2022-08-22T21:34:29.835Z,97954.97
2022-08-22T21:36:33.065Z,97958.13
2022-08-22T21:38:36.095Z,97962.50
2022-08-22T21:40:39.820Z,97965.00
2022-08-22T21:42:46.209Z,97970.00
2022-08-22T21:44:56.861Z,97969.03
2022-08-22T21:47:19.124Z,97971.72
2022-08-22T21:49:34.095Z,97967.13
2022-08-22T21:51:42.675Z,97975.75
2022-08-22T21:53:45.712Z,97976.44
2022-08-22T21:55:48.799Z,97973.50
2022-08-22T21:58:12.055Z,97975.16
2022-08-22T22:00:41.181Z,97976.69
2022-08-22T22:02:59.959Z,97970.41
2022-08-22T22:05:09.989Z,97981.47
2022-08-22T22:07:14.490Z,97982.66
2022-08-22T22:09:19.139Z,97982.81
2022-08-22T22:11:22.207Z,97989.63
2022-08-22T22:13:27.158Z,97991.97
2022-08-22T22:15:33.153Z,97988.16
2022-08-22T22:17:36.255Z,97990.47
2022-08-22T22:19:39.812Z,97979.53
2022-08-22T22:21:42.799Z,97985.00
2022-08-22T22:23:46.029Z,97983.69
2022-08-22T22:25:49.567Z,97990.16
2022-08-22T22:27:52.856Z,97986.19
2022-08-22T22:29:58.860Z,97990.81
2022-08-22T22:32:01.882Z,98000.09
2022-08-22T22:34:05.160Z,97995.31
2022-08-22T22:36:11.277Z,97995.63
2022-08-22T22:38:14.709Z,97994.63
2022-08-22T22:40:17.798Z,98003.06
2022-08-22T22:42:20.892Z,98002.75
2022-08-22T22:44:25.259Z,98004.69
2022-08-22T22:46:29.760Z,98006.69
2022-08-22T22:48:32.920Z,98004.38
2022-08-22T22:50:40.395Z,98006.34
2022-08-22T22:52:43.412Z,98009.16
2022-08-22T22:54:46.564Z,98008.78
2022-08-22T22:56:53.451Z,98007.63
2022-08-22T22:58:58.981Z,98008.63
2022-08-22T23:01:08.283Z,98012.41
2022-08-22T23:03:12.754Z,98015.53
2022-08-22T23:05:15.895Z,98013.38
2022-08-22T23:07:19.373Z,98008.59
2022-08-22T23:09:23.858Z,98005.91
2022-08-22T23:11:41.824Z,98011.50
2022-08-22T23:13:44.808Z,98014.81
2022-08-22T23:15:47.801Z,98013.50
2022-08-22T23:17:50.811Z,98015.91
2022-08-22T23:19:55.208Z,98015.25
2022-08-22T23:21:59.532Z,98010.28
2022-08-22T23:24:04.402Z,98015.75
2022-08-22T23:26:07.859Z,98017.22
2022-08-22T23:28:11.007Z,98021.97
2022-08-22T23:30:14.472Z,98023.81
2022-08-22T23:32:17.783Z,98021.31
2022-08-22T23:34:22.951Z,98026.88
2022-08-22T23:36:27.319Z,98036.81
2022-08-22T23:38:30.333Z,98040.88
2022-08-22T23:40:33.608Z,98038.72
2022-08-22T23:42:36.685Z,98042.34
2022-08-22T23:44:41.152Z,98033.59
2022-08-22T23:46:44.568Z,98039.03
2022-08-22T23:48:47.724Z,98032.06
2022-08-22T23:50:50.707Z,98040.00
2022-08-22T23:52:55.155Z,98035.03
2022-08-22T23:54:58.115Z,98036.34
2022-08-22T23:57:02.814Z,98037.78
2022-08-22T23:59:16.691Z,98029.34
